createdAt,value
2022-12-07T00:01:19.636Z,16.47
2022-12-07T00:03:47.546Z,15.67
2022-12-07T00:06:15.522Z,15.90
2022-12-07T00:08:42.410Z,16.03
2022-12-07T00:11:11.051Z,15.10
2022-12-07T00:13:38.328Z,15.03
2022-12-07T00:16:10.180Z,17.33
2022-12-07T00:18:37.065Z,16.90
2022-12-07T00:21:10.310Z,17.00
2022-12-07T00:23:37.096Z,17.77
2022-12-07T00:26:11.880Z,17.87
2022-12-07T00:28:38.903Z,18.20
2022-12-07T00:31:07.669Z,21.70
2022-12-07T00:33:35.079Z,19.97
2022-12-07T00:36:02.904Z,19.83
2022-12-07T00:38:31.726Z,20.23
2022-12-07T00:41:03.266Z,22.63
2022-12-07T00:43:30.339Z,27.73
2022-12-07T00:45:57.056Z,30.03
2022-12-07T00:48:24.174Z,28.30
2022-12-07T00:50:51.122Z,25.20
2022-12-07T00:53:17.679Z,28.50
2022-12-07T00:55:44.747Z,29.53
2022-12-07T00:58:11.827Z,26.47
2022-12-07T01:00:40.048Z,38.00
2022-12-07T01:03:07.749Z,29.57
2022-12-07T01:05:34.292Z,27.07
2022-12-07T01:08:00.873Z,31.60
2022-12-07T01:10:27.646Z,30.93
2022-12-07T01:12:54.226Z,34.73
2022-12-07T01:15:20.665Z,32.37
2022-12-07T01:17:47.135Z,30.53
2022-12-07T01:20:13.921Z,31.53
2022-12-07T01:22:43.983Z,32.57
2022-12-07T01:25:11.896Z,29.00
2022-12-07T01:27:38.835Z,29.93
2022-12-07T01:30:07.895Z,30.93
2022-12-07T01:32:34.753Z,26.80
2022-12-07T01:35:01.291Z,27.30
2022-12-07T01:37:27.769Z,25.30
2022-12-07T01:39:54.235Z,26.57
2022-12-07T01:42:20.737Z,25.70
2022-12-07T01:45:24.806Z,22.90
2022-12-07T01:47:54.697Z,20.77
2022-12-07T01:50:21.776Z,18.93
2022-12-07T01:52:50.930Z,17.37
2022-12-07T01:55:18.307Z,16.87
2022-12-07T01:57:48.929Z,13.30
2022-12-07T02:00:16.570Z,13.43
2022-12-07T02:02:49.639Z,11.00
2022-12-07T02:05:16.519Z,10.33
2022-12-07T02:07:43.243Z,8.70
2022-12-07T02:10:17.945Z,8.03
2022-12-07T02:12:46.178Z,7.20
2022-12-07T02:15:12.923Z,8.17
2022-12-07T02:17:48.938Z,6.70
2022-12-07T02:20:19.132Z,6.20
2022-12-07T02:23:05.431Z,5.93
2022-12-07T02:26:00.422Z,5.43
2022-12-07T02:28:37.121Z,4.97
2022-12-07T02:31:11.153Z,4.37
2022-12-07T02:34:04.788Z,3.83
2022-12-07T02:36:34.625Z,4.10
2022-12-07T02:39:05.651Z,3.53
2022-12-07T02:41:39.303Z,4.23
2022-12-07T02:44:09.806Z,4.07
2022-12-07T02:46:40.651Z,4.43
2022-12-07T02:49:07.995Z,4.10
2022-12-07T02:51:34.851Z,4.13
2022-12-07T02:54:02.188Z,5.10
2022-12-07T02:56:37.764Z,4.90
2022-12-07T02:59:26.021Z,4.67
2022-12-07T03:02:17.944Z,4.93
2022-12-07T03:04:50.599Z,5.40
2022-12-07T03:07:19.831Z,5.20
2022-12-07T03:09:56.096Z,7.27
2022-12-07T03:12:31.088Z,7.17
2022-12-07T03:15:07.727Z,7.63
2022-12-07T03:17:37.732Z,7.77
2022-12-07T03:20:08.693Z,8.07
2022-12-07T03:22:36.767Z,7.33
2022-12-07T03:25:10.445Z,8.83
2022-12-07T03:27:47.325Z,7.83
2022-12-07T03:30:16.854Z,9.33
2022-12-07T03:32:54.928Z,8.77
2022-12-07T03:35:28.573Z,8.83
2022-12-07T03:38:10.265Z,9.60
2022-12-07T03:40:38.940Z,8.77
2022-12-07T03:43:05.931Z,10.37
2022-12-07T03:45:42.822Z,9.87
2022-12-07T03:48:12.241Z,10.17
2022-12-07T03:50:55.423Z,11.20
2022-12-07T03:53:26.262Z,9.80
2022-12-07T03:55:53.739Z,9.57
2022-12-07T03:58:21.936Z,9.73
2022-12-07T04:00:50.382Z,10.60
2022-12-07T04:03:17.132Z,10.93
2022-12-07T04:05:44.428Z,9.63
2022-12-07T04:08:11.022Z,9.10
2022-12-07T04:10:37.622Z,9.20
2022-12-07T04:13:04.071Z,8.60
2022-12-07T04:15:30.564Z,8.67
2022-12-07T04:17:57.027Z,8.67
2022-12-07T04:20:23.580Z,9.17
2022-12-07T04:22:50.002Z,8.50
2022-12-07T04:25:16.504Z,8.07
2022-12-07T04:27:43.083Z,8.87
2022-12-07T04:30:10.954Z,8.40
2022-12-07T04:32:37.411Z,8.57
2022-12-07T04:35:04.415Z,9.30
2022-12-07T04:37:30.950Z,9.30
2022-12-07T04:39:57.388Z,8.63
2022-12-07T04:42:23.845Z,8.83
2022-12-07T04:44:50.318Z,9.50
2022-12-07T04:47:16.831Z,9.33
2022-12-07T04:49:43.352Z,8.10
2022-12-07T04:52:09.839Z,8.97
2022-12-07T04:54:36.319Z,10.30
2022-12-07T04:57:02.804Z,9.47
2022-12-07T04:59:29.244Z,10.93
2022-12-07T05:01:55.739Z,10.37
2022-12-07T05:04:22.269Z,9.70
2022-12-07T05:06:48.742Z,8.07
2022-12-07T05:09:15.243Z,8.17
2022-12-07T05:11:41.998Z,8.23
2022-12-07T05:14:20.076Z,8.27
2022-12-07T05:16:48.856Z,8.07
2022-12-07T05:19:15.444Z,8.73
2022-12-07T05:21:42.120Z,10.10
2022-12-07T05:24:10.486Z,8.40
2022-12-07T05:26:37.052Z,9.40
2022-12-07T05:29:04.331Z,8.57
2022-12-07T05:31:30.904Z,10.27
2022-12-07T05:33:57.375Z,8.13
2022-12-07T05:36:24.075Z,9.00
2022-12-07T05:38:50.500Z,7.97
2022-12-07T05:41:37.623Z,7.50
2022-12-07T05:44:04.745Z,7.77
2022-12-07T05:46:31.231Z,7.70
2022-12-07T05:48:57.680Z,7.73
2022-12-07T05:51:24.156Z,8.80
2022-12-07T05:53:50.760Z,8.30
2022-12-07T05:56:17.319Z,8.90
2022-12-07T05:59:02.584Z,8.43
2022-12-07T06:01:29.133Z,8.40
2022-12-07T06:03:55.576Z,8.47
2022-12-07T06:06:22.111Z,8.73
2022-12-07T06:08:48.603Z,7.83
2022-12-07T06:11:33.784Z,7.53
2022-12-07T06:14:00.350Z,7.70
2022-12-07T06:16:26.869Z,7.63
2022-12-07T06:18:53.386Z,7.10
2022-12-07T06:21:19.838Z,7.27
2022-12-07T06:23:46.377Z,7.57
2022-12-07T06:26:12.809Z,8.13
2022-12-07T06:28:39.327Z,8.70
2022-12-07T06:31:10.858Z,10.43
2022-12-07T06:33:40.127Z,9.37
2022-12-07T06:36:06.862Z,9.30
2022-12-07T06:38:33.361Z,11.87
2022-12-07T06:40:59.795Z,10.57
2022-12-07T06:43:26.294Z,10.60
2022-12-07T06:45:52.815Z,9.77
2022-12-07T06:48:19.291Z,8.87
2022-12-07T06:50:51.275Z,9.10
2022-12-07T06:53:21.059Z,8.53
2022-12-07T06:55:47.484Z,8.37
2022-12-07T06:58:13.949Z,8.10
2022-12-07T07:00:40.558Z,8.53
2022-12-07T07:03:07.110Z,8.00
2022-12-07T07:05:33.567Z,7.43
2022-12-07T07:10:46.565Z,7.87
2022-12-07T07:13:14.153Z,8.07
2022-12-07T07:15:40.676Z,7.00
2022-12-07T07:18:08.084Z,7.93
2022-12-07T07:20:35.163Z,8.07
2022-12-07T07:23:01.718Z,8.17
2022-12-07T07:25:28.148Z,7.93
2022-12-07T07:27:54.629Z,7.47
2022-12-07T07:30:21.241Z,7.60
2022-12-07T07:32:47.697Z,7.43
2022-12-07T07:35:15.143Z,6.90
2022-12-07T07:37:42.176Z,7.03
2022-12-07T07:40:10.098Z,7.53
2022-12-07T07:42:36.626Z,7.30
2022-12-07T07:45:03.688Z,7.93
2022-12-07T07:47:30.175Z,7.83
2022-12-07T07:49:58.139Z,8.17
2022-12-07T07:52:24.637Z,7.40
2022-12-07T07:54:51.121Z,7.30
2022-12-07T07:57:18.526Z,6.90
2022-12-07T07:59:44.984Z,6.60
2022-12-07T08:02:23.207Z,6.30
2022-12-07T08:04:49.779Z,5.57
2022-12-07T08:07:16.605Z,5.53
2022-12-07T08:09:43.024Z,5.60
2022-12-07T08:12:09.497Z,5.93
2022-12-07T08:14:36.050Z,5.37
2022-12-07T08:17:02.694Z,5.90
2022-12-07T08:19:29.175Z,5.43
2022-12-07T08:21:57.013Z,4.23
2022-12-07T08:24:24.079Z,4.00
2022-12-07T08:26:51.425Z,4.07
2022-12-07T08:29:18.099Z,4.10
2022-12-07T08:31:44.546Z,4.00
2022-12-07T08:34:12.229Z,3.87
2022-12-07T08:36:38.731Z,4.10
2022-12-07T08:41:51.718Z,4.37
2022-12-07T08:44:18.186Z,4.07
2022-12-07T08:46:52.888Z,3.77
2022-12-07T08:49:22.342Z,3.90
2022-12-07T08:51:48.891Z,3.40
2022-12-07T08:54:18.177Z,2.93
2022-12-07T08:56:45.402Z,3.20
2022-12-07T08:59:13.718Z,3.53
2022-12-07T09:01:40.185Z,3.43
2022-12-07T09:04:06.685Z,2.80
2022-12-07T09:06:33.351Z,2.60
2022-12-07T09:09:02.467Z,2.70
2022-12-07T09:11:29.280Z,2.90
2022-12-07T09:13:56.371Z,2.73
2022-12-07T09:16:23.237Z,2.73
2022-12-07T09:18:49.841Z,3.47
2022-12-07T09:21:16.291Z,2.90
2022-12-07T09:23:43.717Z,2.80
2022-12-07T09:26:11.099Z,2.60
2022-12-07T09:28:38.200Z,2.77
2022-12-07T09:33:59.907Z,2.57
2022-12-07T09:36:27.514Z,2.10
2022-12-07T09:38:54.079Z,3.03
2022-12-07T09:41:21.082Z,2.53
2022-12-07T09:43:48.137Z,1.93
2022-12-07T09:46:16.453Z,2.53
2022-12-07T09:48:43.670Z,2.90
2022-12-07T09:51:25.415Z,2.23
2022-12-07T09:53:54.811Z,2.57
2022-12-07T09:56:22.662Z,2.87
2022-12-07T09:58:49.691Z,2.63
2022-12-07T10:01:19.685Z,2.53
2022-12-07T10:03:53.383Z,2.70
2022-12-07T10:06:19.995Z,2.70
2022-12-07T10:08:46.676Z,2.47
2022-12-07T10:11:15.742Z,2.40
2022-12-07T10:13:46.305Z,2.60
2022-12-07T10:16:25.165Z,2.53
2022-12-07T10:18:52.234Z,2.20
2022-12-07T10:21:27.059Z,2.63
2022-12-07T10:24:17.883Z,2.70
2022-12-07T10:26:47.302Z,2.60
2022-12-07T10:29:33.215Z,2.47
2022-12-07T10:32:07.946Z,2.43
2022-12-07T10:34:42.044Z,2.30
2022-12-07T10:37:09.896Z,2.37
2022-12-07T10:39:53.032Z,3.10
2022-12-07T10:42:26.525Z,4.10
2022-12-07T10:45:11.189Z,3.67
2022-12-07T10:47:38.132Z,3.10
2022-12-07T10:50:20.012Z,2.60
2022-12-07T10:53:10.156Z,2.40
2022-12-07T10:55:57.783Z,2.30
2022-12-07T10:59:01.775Z,1.70
2022-12-07T11:01:31.445Z,2.30
2022-12-07T11:04:04.756Z,2.17
2022-12-07T11:06:31.175Z,2.40
2022-12-07T11:09:16.000Z,2.27
2022-12-07T11:12:11.619Z,2.30
2022-12-07T11:14:42.936Z,1.80
2022-12-07T11:17:15.899Z,1.80
2022-12-07T11:19:56.806Z,1.90
2022-12-07T11:22:44.805Z,2.17
2022-12-07T11:25:28.567Z,2.27
2022-12-07T11:28:11.433Z,2.07
2022-12-07T11:30:48.137Z,2.57
2022-12-07T11:33:23.390Z,3.00
2022-12-07T11:36:04.656Z,1.80
2022-12-07T11:38:42.486Z,2.10
2022-12-07T11:41:16.051Z,1.73
2022-12-07T11:44:01.689Z,1.77
2022-12-07T11:47:04.578Z,1.60
2022-12-07T11:49:56.038Z,1.60
2022-12-07T11:52:46.348Z,1.50
2022-12-07T11:55:54.862Z,1.70
2022-12-07T11:58:31.087Z,1.63
2022-12-07T12:01:12.670Z,1.70
2022-12-07T12:03:49.665Z,1.53
2022-12-07T12:06:20.182Z,1.60
2022-12-07T12:15:03.161Z,1.60
2022-12-07T12:17:52.197Z,1.90
2022-12-07T12:20:31.523Z,1.83
2022-12-07T12:23:02.141Z,1.70
2022-12-07T12:25:31.940Z,1.97
2022-12-07T12:28:00.037Z,1.90
2022-12-07T12:30:31.772Z,1.60
2022-12-07T12:33:07.747Z,1.60
2022-12-07T12:35:35.439Z,1.70
2022-12-07T12:38:27.857Z,2.03
2022-12-07T12:40:55.969Z,1.40
2022-12-07T12:43:43.303Z,1.80
2022-12-07T12:46:34.535Z,1.50
2022-12-07T12:49:22.544Z,1.40
2022-12-07T12:51:50.887Z,1.70
2022-12-07T12:54:27.219Z,1.67
2022-12-07T12:57:08.209Z,1.43
2022-12-07T12:59:37.955Z,1.60
2022-12-07T13:02:19.765Z,1.50
2022-12-07T13:05:13.597Z,1.40
2022-12-07T13:07:48.645Z,1.50
2022-12-07T13:10:35.965Z,1.67
2022-12-07T13:13:25.832Z,1.10
2022-12-07T13:16:08.858Z,1.30
2022-12-07T13:18:35.354Z,1.70
2022-12-07T13:21:07.960Z,1.67
2022-12-07T13:23:46.809Z,1.33
2022-12-07T13:26:17.597Z,1.90
2022-12-07T13:29:03.967Z,2.10
2022-12-07T13:31:35.368Z,1.70
2022-12-07T13:34:05.967Z,1.97
2022-12-07T13:36:40.014Z,1.33
2022-12-07T13:39:33.668Z,1.40
2022-12-07T13:42:02.163Z,1.50
2022-12-07T13:44:29.578Z,1.60
2022-12-07T13:46:59.172Z,1.40
2022-12-07T13:49:26.747Z,1.37
2022-12-07T13:51:54.346Z,1.60
2022-12-07T13:54:21.117Z,1.73
2022-12-07T13:56:54.099Z,2.10
2022-12-07T13:59:25.294Z,1.37
2022-12-07T14:01:52.892Z,2.00
2022-12-07T14:04:38.320Z,1.70
2022-12-07T14:07:23.548Z,1.60
2022-12-07T14:10:06.007Z,1.60
2022-12-07T14:12:33.393Z,1.53
2022-12-07T14:15:02.979Z,1.70
2022-12-07T14:17:29.975Z,1.50
2022-12-07T14:20:01.125Z,1.50
2022-12-07T14:22:35.811Z,1.60
2022-12-07T14:25:16.004Z,1.80
2022-12-07T14:27:50.565Z,1.70
2022-12-07T14:30:18.635Z,1.83
2022-12-07T14:32:49.459Z,1.60
2022-12-07T14:35:17.747Z,1.73
2022-12-07T14:37:48.068Z,2.00
2022-12-07T14:40:17.659Z,1.93
2022-12-07T14:42:46.219Z,1.80
2022-12-07T14:45:18.183Z,1.67
2022-12-07T14:50:37.059Z,2.33
2022-12-07T14:53:26.679Z,1.70
2022-12-07T14:55:53.165Z,1.60
2022-12-07T14:58:19.720Z,1.90
2022-12-07T15:00:46.427Z,1.87
2022-12-07T15:03:14.206Z,2.50
2022-12-07T15:05:41.945Z,3.17
2022-12-07T15:08:11.585Z,2.30
2022-12-07T15:10:39.760Z,2.07
2022-12-07T15:13:24.802Z,2.43
2022-12-07T15:15:52.773Z,1.97
2022-12-07T15:18:20.339Z,1.90
2022-12-07T15:20:47.498Z,2.00
2022-12-07T15:23:14.073Z,1.87
2022-12-07T15:25:44.959Z,1.83
2022-12-07T15:28:11.534Z,1.90
2022-12-07T15:30:39.279Z,2.13
2022-12-07T15:33:05.756Z,1.87
2022-12-07T15:35:32.196Z,2.50
2022-12-07T15:37:58.686Z,2.57
2022-12-07T15:40:25.272Z,2.03
2022-12-07T15:42:51.831Z,1.90
2022-12-07T15:45:18.311Z,2.53
2022-12-07T15:48:26.906Z,5.53
2022-12-07T15:50:34.704Z,10.03
2022-12-07T15:53:01.166Z,9.37
2022-12-07T15:55:27.602Z,9.07
2022-12-07T15:57:54.057Z,6.50
2022-12-07T16:00:20.966Z,4.13
2022-12-07T16:02:47.588Z,3.03
2022-12-07T16:05:14.008Z,3.10
2022-12-07T16:07:40.500Z,2.60
2022-12-07T16:10:07.688Z,2.70
2022-12-07T16:12:34.155Z,3.10
2022-12-07T16:15:00.861Z,3.00
2022-12-07T16:17:27.524Z,2.87
2022-12-07T16:19:54.472Z,2.90
2022-12-07T16:22:20.922Z,3.47
2022-12-07T16:24:47.464Z,3.43
2022-12-07T16:27:14.042Z,3.10
2022-12-07T16:29:40.465Z,3.63
2022-12-07T16:32:06.934Z,3.10
2022-12-07T16:34:33.444Z,3.47
2022-12-07T16:37:04.697Z,3.70
2022-12-07T16:39:32.167Z,3.97
2022-12-07T16:41:58.608Z,3.77
2022-12-07T16:44:25.162Z,4.03
2022-12-07T16:46:51.717Z,4.10
2022-12-07T16:49:19.475Z,3.90
2022-12-07T16:51:47.320Z,4.83
2022-12-07T16:54:14.021Z,5.47
2022-12-07T16:56:40.671Z,5.50
2022-12-07T16:59:07.227Z,4.27
2022-12-07T17:01:35.372Z,4.30
2022-12-07T17:04:02.197Z,4.77
2022-12-07T17:06:30.109Z,5.27
2022-12-07T17:08:57.414Z,5.20
2022-12-07T17:11:26.441Z,5.67
2022-12-07T17:14:11.615Z,6.00
2022-12-07T17:16:38.696Z,6.40
2022-12-07T17:19:06.694Z,7.60
2022-12-07T17:21:33.503Z,8.97
2022-12-07T17:24:00.949Z,8.57
2022-12-07T17:26:34.936Z,7.97
2022-12-07T17:29:02.292Z,8.23
2022-12-07T17:31:28.820Z,10.17
2022-12-07T17:33:55.382Z,9.10
2022-12-07T17:36:25.652Z,7.40
2022-12-07T17:38:52.464Z,7.57
2022-12-07T17:41:40.150Z,7.37
2022-12-07T17:44:10.250Z,6.97
2022-12-07T17:46:37.399Z,5.60
2022-12-07T17:49:04.402Z,5.50
2022-12-07T17:51:51.156Z,4.30
2022-12-07T17:54:18.926Z,4.27
2022-12-07T17:56:46.051Z,5.30
2022-12-07T17:59:12.598Z,7.30
2022-12-07T18:01:39.592Z,8.17
2022-12-07T18:04:06.552Z,9.70
2022-12-07T18:06:33.759Z,10.03
2022-12-07T18:09:00.375Z,11.80
2022-12-07T18:11:27.302Z,13.60
2022-12-07T18:13:53.906Z,15.27
2022-12-07T18:16:24.035Z,15.00
2022-12-07T18:18:53.956Z,13.63
2022-12-07T18:21:26.066Z,12.97
2022-12-07T18:23:55.382Z,13.13
2022-12-07T18:26:24.271Z,17.33
2022-12-07T18:28:51.250Z,17.40
2022-12-07T18:31:18.130Z,18.23
2022-12-07T18:33:46.411Z,17.80
2022-12-07T18:36:14.030Z,17.33
2022-12-07T18:38:41.085Z,15.20
2022-12-07T18:41:09.434Z,13.90
2022-12-07T18:43:35.879Z,13.50
2022-12-07T18:46:02.442Z,12.50
2022-12-07T18:48:29.854Z,11.40
2022-12-07T18:51:01.964Z,10.03
2022-12-07T18:53:28.803Z,10.07
2022-12-07T18:56:22.495Z,9.63
2022-12-07T18:59:15.723Z,9.10
2022-12-07T19:01:43.891Z,8.63
2022-12-07T19:04:10.980Z,8.10
2022-12-07T19:06:37.692Z,8.00
2022-12-07T19:09:04.705Z,7.87
2022-12-07T19:11:51.601Z,8.40
2022-12-07T19:14:18.706Z,7.77
2022-12-07T19:16:45.820Z,8.83
2022-12-07T19:19:12.293Z,8.47
2022-12-07T19:21:38.814Z,11.43
2022-12-07T19:24:06.438Z,11.03
2022-12-07T19:26:33.128Z,12.23
2022-12-07T19:28:59.726Z,10.73
2022-12-07T19:31:26.291Z,11.10
2022-12-07T19:33:52.803Z,11.03
2022-12-07T19:36:19.279Z,11.20
2022-12-07T19:38:45.760Z,11.93
2022-12-07T19:41:33.485Z,13.37
2022-12-07T19:44:01.807Z,13.70
2022-12-07T19:46:28.594Z,12.07
2022-12-07T19:48:55.282Z,15.07
2022-12-07T19:51:21.775Z,14.07
2022-12-07T19:53:48.224Z,19.20
2022-12-07T19:56:19.191Z,16.47
2022-12-07T19:58:45.769Z,12.93
2022-12-07T20:01:12.400Z,13.50
2022-12-07T20:03:38.911Z,6.93
2022-12-07T20:06:15.818Z,8.87
2022-12-07T20:08:42.714Z,9.37
2022-12-07T20:11:27.792Z,12.60
2022-12-07T20:13:54.574Z,12.27
2022-12-07T20:16:21.426Z,8.73
2022-12-07T20:18:51.605Z,9.87
2022-12-07T20:21:22.738Z,9.13
2022-12-07T20:23:49.265Z,9.63
2022-12-07T20:26:15.750Z,8.07
2022-12-07T20:28:46.272Z,8.60
2022-12-07T20:31:14.788Z,7.17
2022-12-07T20:33:42.443Z,6.87
2022-12-07T20:36:09.908Z,7.33
2022-12-07T20:38:36.383Z,7.57
2022-12-07T20:41:05.263Z,8.23
2022-12-07T20:43:31.910Z,8.07
2022-12-07T20:45:58.622Z,8.23
2022-12-07T20:48:25.168Z,9.37
2022-12-07T20:50:55.803Z,8.20
2022-12-07T20:53:23.108Z,7.97
2022-12-07T20:55:50.461Z,8.10
2022-12-07T20:58:16.943Z,7.17
2022-12-07T21:00:43.812Z,7.23
2022-12-07T21:03:10.452Z,6.57
2022-12-07T21:05:37.108Z,6.37
2022-12-07T21:08:03.715Z,6.17
2022-12-07T21:10:30.888Z,8.00
2022-12-07T21:12:57.329Z,7.60
2022-12-07T21:15:23.994Z,7.17
2022-12-07T21:17:50.504Z,7.77
2022-12-07T21:20:17.036Z,6.20
2022-12-07T21:22:43.611Z,5.93
2022-12-07T21:25:11.125Z,6.33
2022-12-07T21:27:37.719Z,5.50
2022-12-07T21:30:04.956Z,5.23
2022-12-07T21:32:31.472Z,5.20
2022-12-07T21:34:57.919Z,5.23
2022-12-07T21:37:25.670Z,4.80
2022-12-07T21:39:52.191Z,4.90
2022-12-07T21:42:18.680Z,4.47
2022-12-07T21:44:45.182Z,4.73
2022-12-07T21:47:11.890Z,4.07
2022-12-07T21:49:38.919Z,4.40
2022-12-07T21:52:05.670Z,4.37
2022-12-07T21:54:32.663Z,4.50
2022-12-07T21:56:59.196Z,4.60
2022-12-07T21:59:25.641Z,4.53
2022-12-07T22:01:52.853Z,4.10
2022-12-07T22:04:24.166Z,4.20
2022-12-07T22:06:52.103Z,3.93
2022-12-07T22:09:19.412Z,4.13
2022-12-07T22:11:46.776Z,4.43
2022-12-07T22:14:32.032Z,4.23
2022-12-07T22:16:58.705Z,5.17
2022-12-07T22:19:27.047Z,4.50
2022-12-07T22:21:53.618Z,4.63
2022-12-07T22:24:20.223Z,4.40
2022-12-07T22:26:46.874Z,4.57
2022-12-07T22:29:13.340Z,5.00
2022-12-07T22:31:41.359Z,5.30
2022-12-07T22:34:16.213Z,4.43
2022-12-07T22:36:43.515Z,4.53
2022-12-07T22:39:10.278Z,4.70
2022-12-07T22:41:36.795Z,4.70
2022-12-07T22:44:05.835Z,5.47
2022-12-07T22:46:33.940Z,5.07
2022-12-07T22:49:00.495Z,5.50
2022-12-07T22:51:32.168Z,4.47
2022-12-07T22:54:00.087Z,4.90
2022-12-07T22:56:28.438Z,4.60
2022-12-07T22:58:55.219Z,5.63
2022-12-07T23:01:23.007Z,5.43
2022-12-07T23:03:50.371Z,5.47
2022-12-07T23:06:23.192Z,5.40
2022-12-07T23:08:50.669Z,5.40
2022-12-07T23:11:38.932Z,5.03
2022-12-07T23:14:10.528Z,5.23
2022-12-07T23:16:37.220Z,6.87
2022-12-07T23:19:04.316Z,6.87
2022-12-07T23:21:31.832Z,6.50
2022-12-07T23:23:58.452Z,6.00
2022-12-07T23:26:25.289Z,5.90
2022-12-07T23:28:52.068Z,6.50
2022-12-07T23:31:19.930Z,6.73
2022-12-07T23:33:46.451Z,6.83
2022-12-07T23:36:15.969Z,7.40
2022-12-07T23:38:43.888Z,6.80
2022-12-07T23:41:12.347Z,7.77
2022-12-07T23:43:40.072Z,7.33
2022-12-07T23:46:12.168Z,8.40
2022-12-07T23:48:39.951Z,9.67
2022-12-07T23:51:07.435Z,9.30
2022-12-07T23:53:38.094Z,9.17
2022-12-07T23:56:05.586Z,9.53
2022-12-07T23:58:32.428Z,7.77
